Terminal Aerodrome Forecast
Issued by NWS Portland, OR

Home | Current Version | Previous Version | Text Only | Print | Product List | Glossary On
Versions: 1 2 3 4 5 6 7 8 9 10 11 12 13 14 15 16 17 18 19 20 21
000
FTUS46 KPQR 081723
TAFEUG
TAF
KEUG 081723Z 0818/0918 03010KT 3SM -FZRAPL BR BKN008 OVC035
     FM082100 10007KT 2SM -RA BKN012 OVC035
     FM090000 16007KT 5SM -RADZ OVC019
     FM090700 19007KT 5SM BR OVC019
     FM091400 19007KT P6SM OVC007=

USA.gov is the U.S. government's official web portal to all federal, state and local government web resources and services.